Key Lake Airport
CYKJ : rendu visible

Aérodrome :











RETROUVEZ-NOUS SUR...

 
LOGIN :

S'inscrire | Disclaimer

   EN    FR    IT 

 









Légende :    VFR   VFR Marginal   IFR   IFR Intensif   IFR Très Intensif
Visi : 
Plafond : 
>= 8 km
>= 3000ft
5 à 8 km
1000 à 3000 ft
1500m à 5 km
500 à 1000 ft
800 à 1500m
200 à 500 ft
< 800m
< 200 ft
Symboles :   Orages  Brouillard  Fortes neiges  Fortes précipitations  Vent > 20 kt






- Altitude de l'aérodrome : 1679 ft
- Code IATA : YKJ


CYKJ - Key Lake

DERNIER METAR :
  • 100749Z AUTO 30008KT 8SM -SN CLR M30/M33 A2997 RMK SLP225

METARs EXPIRÉS :
  • 100702Z AUTO 30007KT 9SM CLR M29/M33 A2997 RMK SLP223
  • 100634Z AUTO 29010KT 6SM -SN FEW026 M29/M32 A2997 RMK SLP225
  • 100600Z AUTO 28011G16KT 5SM -SN FEW028 BKN042 M29/M32 A2997 RMK SLP225
  • 100556Z AUTO 28011G16KT 5SM -SN BKN044 M29/M32 A2997 RMK SLP227
  • 100500Z AUTO 28010KT 9SM OVC044 M29/M33 A2999 RMK SLP235

Prévision TAF périmée.



MET'MAP, la Météo Aéronautique d'un coup d'oeil ! - Copyright ORBIFLY Décembre 2007 - Disclaimer

ORBIFLY MET'MAP TEAM :

Programmation & Développement : Alexandra Zaïnal
Sur une idée originale de : Baudouin d'Aumeries
Assistance à la programmation : Marc-Olivier Méhu
Soutien technique & logistique : Manuel Goepfert

Contact : metmap@orbifly.com




SOURCES & CREDITS :

   NOAA       Earth
Advisory